createdAt,value
2023-04-25T00:00:52.180Z,9.55
2023-04-25T00:03:18.942Z,9.59
2023-04-25T00:05:46.263Z,9.62
2023-04-25T00:08:13.162Z,9.66
2023-04-25T00:10:39.764Z,9.68
2023-04-25T00:13:06.596Z,9.73
2023-04-25T00:15:33.165Z,9.76
2023-04-25T00:17:59.884Z,9.79
2023-04-25T00:20:26.495Z,9.82
2023-04-25T00:22:53.059Z,9.85
2023-04-25T00:25:19.783Z,9.89
2023-04-25T00:27:46.362Z,9.90
2023-04-25T00:30:13.683Z,9.92
2023-04-25T00:32:40.426Z,9.94
2023-04-25T00:35:07.347Z,9.96
2023-04-25T00:37:33.969Z,9.97
2023-04-25T00:40:00.574Z,9.98
2023-04-25T00:42:27.286Z,10.01
2023-04-25T00:44:54.122Z,10.02
2023-04-25T00:47:20.943Z,10.02
2023-04-25T00:49:47.720Z,10.03
2023-04-25T00:52:14.610Z,10.06
2023-04-25T00:54:41.342Z,10.07
2023-04-25T00:57:08.023Z,10.08
2023-04-25T00:59:35.277Z,10.07
2023-04-25T01:02:02.130Z,10.10
2023-04-25T01:04:29.119Z,10.11
2023-04-25T01:06:55.954Z,10.12
2023-04-25T01:09:23.452Z,10.15
2023-04-25T01:11:50.689Z,10.15
2023-04-25T01:14:18.002Z,10.18
2023-04-25T01:16:45.010Z,10.20
2023-04-25T01:19:12.136Z,10.21
2023-04-25T01:21:38.789Z,10.23
2023-04-25T01:24:06.276Z,10.25
2023-04-25T01:26:34.595Z,10.26
2023-04-25T01:29:01.738Z,10.27
2023-04-25T01:31:29.344Z,10.29
2023-04-25T01:33:56.022Z,10.29
2023-04-25T01:36:23.325Z,10.30
2023-04-25T01:38:50.731Z,10.31
2023-04-25T01:41:17.663Z,10.30
2023-04-25T01:43:45.455Z,10.31
2023-04-25T01:46:13.080Z,10.29
2023-04-25T01:48:39.767Z,10.26
2023-04-25T01:51:07.637Z,10.28
2023-04-25T01:53:34.885Z,10.25
2023-04-25T01:56:03.321Z,10.23
2023-04-25T01:58:34.074Z,10.23
2023-04-25T02:01:03.577Z,10.20
2023-04-25T02:03:37.718Z,10.17
2023-04-25T02:06:09.546Z,10.14
2023-04-25T02:08:39.925Z,10.11
2023-04-25T02:11:06.522Z,10.07
2023-04-25T02:13:40.676Z,10.07
2023-04-25T02:16:33.507Z,10.04
2023-04-25T02:19:01.626Z,10.02
2023-04-25T02:21:30.659Z,9.99
2023-04-25T02:23:57.687Z,9.97
2023-04-25T02:26:24.404Z,9.92
2023-04-25T02:28:52.080Z,9.87
2023-04-25T02:31:20.192Z,9.85
2023-04-25T02:33:47.127Z,9.79
2023-04-25T02:36:13.837Z,9.75
2023-04-25T02:38:42.040Z,9.70
2023-04-25T02:41:08.849Z,9.67
2023-04-25T02:43:35.417Z,9.62
2023-04-25T02:46:02.025Z,9.61
2023-04-25T02:48:28.667Z,9.57
2023-04-25T02:50:55.549Z,9.57
2023-04-25T02:53:22.306Z,9.55
2023-04-25T02:55:51.609Z,9.56
2023-04-25T02:58:18.335Z,9.53
2023-04-25T03:00:48.602Z,9.53
2023-04-25T03:03:17.105Z,9.53
2023-04-25T03:05:47.389Z,9.53
2023-04-25T03:08:14.555Z,9.55
2023-04-25T03:10:41.198Z,9.57
2023-04-25T03:13:09.944Z,9.59
2023-04-25T03:15:37.556Z,9.63
2023-04-25T03:18:04.628Z,9.65
2023-04-25T03:20:31.443Z,9.66
2023-04-25T03:22:58.341Z,9.70
2023-04-25T03:25:25.245Z,9.73
2023-04-25T03:27:52.075Z,9.76
2023-04-25T03:30:18.740Z,9.80
2023-04-25T03:32:45.915Z,9.83
2023-04-25T03:35:16.478Z,9.87
2023-04-25T03:37:43.151Z,9.90
2023-04-25T03:40:10.117Z,9.89
2023-04-25T03:42:56.691Z,9.88
2023-04-25T03:45:23.400Z,9.84
2023-04-25T03:47:50.048Z,9.80
2023-04-25T03:50:16.744Z,9.64
2023-04-25T03:52:44.302Z,9.53
2023-04-25T03:55:11.280Z,9.50
2023-04-25T03:57:39.037Z,9.44
2023-04-25T04:00:06.408Z,9.41
2023-04-25T04:02:40.644Z,9.34
2023-04-25T04:05:10.218Z,9.33
2023-04-25T04:07:41.450Z,9.27
2023-04-25T04:10:11.389Z,9.28
2023-04-25T04:12:39.692Z,9.26
2023-04-25T04:15:07.486Z,9.23
2023-04-25T04:17:35.275Z,9.20
2023-04-25T04:20:02.171Z,9.17
2023-04-25T04:22:31.326Z,9.17
2023-04-25T04:25:01.528Z,9.17
2023-04-25T04:27:54.007Z,9.16
2023-04-25T04:30:27.899Z,9.15
2023-04-25T04:32:58.624Z,9.14
2023-04-25T04:35:25.677Z,9.17
2023-04-25T04:37:52.383Z,9.16
2023-04-25T04:40:20.252Z,9.17
2023-04-25T04:43:05.942Z,9.20
2023-04-25T04:45:58.728Z,9.19
2023-04-25T04:48:51.950Z,9.24
2023-04-25T04:51:37.342Z,9.26
2023-04-25T04:54:23.882Z,9.28
2023-04-25T04:57:29.513Z,9.33
2023-04-25T05:00:02.982Z,9.36
2023-04-25T05:02:48.027Z,9.38
2023-04-25T05:05:30.717Z,9.39
2023-04-25T05:08:17.031Z,9.40
2023-04-25T05:11:07.152Z,9.41
2023-04-25T05:13:47.242Z,9.44
2023-04-25T05:16:25.296Z,9.39
2023-04-25T05:18:57.528Z,9.50
2023-04-25T05:21:30.954Z,9.54
2023-04-25T05:24:16.037Z,9.59
2023-04-25T05:27:12.579Z,9.64
2023-04-25T05:29:57.604Z,9.68
2023-04-25T05:32:28.380Z,9.73
2023-04-25T05:34:55.754Z,9.77
2023-04-25T05:37:33.266Z,9.84
2023-04-25T05:40:09.855Z,9.89
2023-04-25T05:42:51.465Z,9.89
2023-04-25T05:45:36.602Z,9.88
2023-04-25T05:48:26.149Z,9.90
2023-04-25T05:51:11.782Z,9.91
2023-04-25T05:53:58.172Z,9.92
2023-04-25T05:56:24.807Z,9.96
2023-04-25T05:58:53.408Z,9.96
2023-04-25T06:01:20.122Z,10.01
2023-04-25T06:03:47.720Z,10.03
2023-04-25T06:06:14.480Z,10.07
2023-04-25T06:08:41.981Z,10.13
2023-04-25T06:11:11.863Z,10.17
2023-04-25T06:13:38.532Z,10.22
2023-04-25T06:16:05.807Z,10.28
2023-04-25T06:18:32.496Z,10.37
2023-04-25T06:20:59.457Z,10.43
2023-04-25T06:23:26.855Z,10.47
2023-04-25T06:25:59.769Z,10.56
2023-04-25T06:28:27.852Z,10.61
2023-04-25T06:30:54.589Z,10.69
2023-04-25T06:33:21.253Z,10.77
2023-04-25T06:35:49.025Z,10.78
2023-04-25T06:38:19.147Z,10.84
2023-04-25T06:40:49.134Z,10.78
2023-04-25T06:43:16.850Z,10.75
2023-04-25T06:46:06.509Z,10.69
2023-04-25T06:48:39.714Z,10.63
2023-04-25T06:51:06.416Z,10.53
2023-04-25T06:53:34.767Z,10.47
2023-04-25T06:56:04.289Z,10.42
2023-04-25T06:58:43.148Z,10.34
2023-04-25T07:01:13.791Z,10.29
2023-04-25T07:03:40.674Z,10.22
2023-04-25T07:06:13.664Z,10.18
2023-04-25T07:08:40.403Z,10.13
2023-04-25T07:11:07.418Z,10.15
2023-04-25T07:13:34.181Z,10.19
2023-04-25T07:16:01.458Z,10.14
2023-04-25T07:18:30.398Z,10.20
2023-04-25T07:20:57.273Z,10.22
2023-04-25T07:23:24.036Z,10.22
2023-04-25T07:25:51.298Z,10.28
2023-04-25T07:28:21.436Z,10.32
2023-04-25T07:30:48.501Z,10.41
2023-04-25T07:33:15.240Z,10.52
2023-04-25T07:35:41.944Z,10.62
2023-04-25T07:38:08.630Z,10.61
2023-04-25T07:40:35.401Z,10.71
2023-04-25T07:43:06.479Z,10.75
2023-04-25T07:45:40.045Z,10.84
2023-04-25T07:48:07.530Z,10.93
2023-04-25T07:50:37.549Z,11.04
2023-04-25T07:53:04.700Z,11.06
2023-04-25T07:55:36.831Z,11.17
2023-04-25T07:58:12.521Z,11.24
2023-04-25T08:00:41.259Z,11.27
2023-04-25T08:03:25.439Z,11.34
2023-04-25T08:05:53.819Z,11.40
2023-04-25T08:08:21.379Z,11.42
2023-04-25T08:10:48.521Z,11.48
2023-04-25T08:13:16.791Z,11.53
2023-04-25T08:15:43.573Z,11.57
2023-04-25T08:18:10.319Z,11.59
2023-04-25T08:20:37.030Z,11.67
2023-04-25T08:23:07.587Z,11.70
2023-04-25T08:25:50.174Z,11.80
2023-04-25T08:28:19.888Z,11.86
2023-04-25T08:30:52.496Z,11.96
2023-04-25T08:33:20.579Z,12.07
2023-04-25T08:35:50.320Z,12.16
2023-04-25T08:38:18.232Z,12.31
2023-04-25T08:40:45.653Z,12.42
2023-04-25T08:43:19.631Z,12.55
2023-04-25T08:45:46.706Z,12.62
2023-04-25T08:48:22.511Z,12.83
2023-04-25T08:50:54.174Z,12.91
2023-04-25T08:53:34.015Z,13.02
2023-04-25T08:56:03.949Z,13.15
2023-04-25T08:58:35.611Z,13.22
2023-04-25T09:01:02.705Z,13.31
2023-04-25T09:03:33.717Z,13.40
2023-04-25T09:06:01.421Z,13.39
2023-04-25T09:08:28.220Z,13.47
2023-04-25T09:10:54.946Z,13.49
2023-04-25T09:13:27.312Z,13.52
2023-04-25T09:16:12.445Z,13.64
2023-04-25T09:18:53.013Z,13.69
2023-04-25T09:21:23.424Z,13.72
2023-04-25T09:23:50.899Z,13.71
2023-04-25T09:26:20.353Z,13.73
2023-04-25T09:28:47.916Z,13.81
2023-04-25T09:31:24.330Z,13.87
2023-04-25T09:34:00.656Z,13.93
2023-04-25T09:36:29.166Z,13.91
2023-04-25T09:39:29.716Z,14.04
2023-04-25T09:42:05.077Z,14.08
2023-04-25T09:44:32.953Z,14.12
2023-04-25T09:46:59.679Z,14.14
2023-04-25T09:49:29.378Z,14.16
2023-04-25T09:52:09.919Z,14.19
2023-04-25T09:54:47.744Z,14.25
2023-04-25T09:57:24.053Z,14.30
2023-04-25T09:59:56.509Z,14.24
2023-04-25T10:02:28.691Z,14.19
2023-04-25T10:05:04.114Z,14.09
2023-04-25T10:07:37.797Z,14.05
2023-04-25T10:10:07.913Z,13.94
2023-04-25T10:12:35.037Z,13.91
2023-04-25T10:15:03.943Z,13.89
2023-04-25T10:17:32.348Z,13.92
2023-04-25T10:19:59.287Z,13.95
2023-04-25T10:22:40.956Z,13.95
2023-04-25T10:25:08.312Z,14.10
2023-04-25T10:27:37.979Z,14.26
2023-04-25T10:30:08.154Z,14.36
2023-04-25T10:32:34.788Z,14.47
2023-04-25T10:35:15.127Z,14.55
2023-04-25T10:38:00.772Z,14.73
2023-04-25T10:40:28.120Z,14.78
2023-04-25T10:42:55.095Z,14.90
2023-04-25T10:45:21.814Z,15.05
2023-04-25T10:47:48.734Z,15.18
2023-04-25T10:50:16.352Z,15.30
2023-04-25T10:52:43.089Z,15.42
2023-04-25T10:55:09.865Z,15.56
2023-04-25T10:57:44.471Z,15.66
2023-04-25T11:00:17.471Z,15.64
2023-04-25T11:02:46.699Z,15.69
2023-04-25T11:05:27.629Z,15.77
2023-04-25T11:08:06.328Z,15.76
2023-04-25T11:10:34.768Z,15.66
2023-04-25T11:13:01.518Z,15.46
2023-04-25T11:15:28.463Z,15.32
2023-04-25T11:17:56.374Z,14.95
2023-04-25T11:20:26.196Z,14.59
2023-04-25T11:22:52.999Z,14.03
2023-04-25T11:25:19.625Z,13.53
2023-04-25T11:27:58.939Z,13.02
2023-04-25T11:30:27.182Z,12.52
2023-04-25T11:32:53.910Z,12.04
2023-04-25T11:35:21.327Z,11.76
2023-04-25T11:37:48.029Z,11.50
2023-04-25T11:40:14.755Z,11.34
2023-04-25T11:42:46.159Z,11.22
2023-04-25T11:45:13.608Z,11.16
2023-04-25T11:47:40.498Z,11.12
2023-04-25T11:50:08.997Z,11.16
2023-04-25T11:52:47.291Z,11.12
2023-04-25T11:55:17.133Z,11.08
2023-04-25T11:57:45.674Z,11.06
2023-04-25T12:00:15.732Z,10.93
2023-04-25T12:02:46.358Z,10.93
2023-04-25T12:05:30.587Z,10.89
2023-04-25T12:07:59.372Z,10.82
2023-04-25T12:10:26.392Z,10.83
2023-04-25T12:12:52.985Z,10.86
2023-04-25T12:15:25.019Z,10.89
2023-04-25T12:17:53.127Z,10.95
2023-04-25T12:20:20.896Z,10.90
2023-04-25T12:22:49.038Z,11.03
2023-04-25T12:25:34.950Z,11.05
2023-04-25T12:28:14.507Z,11.17
2023-04-25T12:31:01.603Z,11.21
2023-04-25T12:33:38.528Z,11.23
2023-04-25T12:36:06.734Z,11.28
2023-04-25T12:38:39.113Z,11.26
2023-04-25T12:41:05.940Z,11.29
2023-04-25T12:43:33.148Z,11.30
2023-04-25T12:46:00.227Z,11.30
2023-04-25T12:48:26.939Z,11.34
2023-04-25T12:50:53.681Z,11.35
2023-04-25T12:53:21.626Z,11.32
2023-04-25T12:55:49.304Z,11.28
2023-04-25T12:58:17.352Z,11.23
2023-04-25T13:00:44.433Z,11.22
2023-04-25T13:03:12.053Z,11.28
2023-04-25T13:05:39.536Z,11.30
2023-04-25T13:08:06.396Z,11.36
2023-04-25T13:10:33.057Z,11.34
2023-04-25T13:12:59.785Z,11.35
2023-04-25T13:15:26.404Z,11.39
2023-04-25T13:17:53.078Z,11.39
2023-04-25T13:20:19.756Z,11.40
2023-04-25T13:22:46.450Z,11.42
2023-04-25T13:25:13.192Z,11.39
2023-04-25T13:27:39.844Z,11.35
2023-04-25T13:30:07.349Z,11.30
2023-04-25T13:32:38.263Z,11.25
2023-04-25T13:35:08.504Z,11.18
2023-04-25T13:37:36.942Z,11.11
2023-04-25T13:40:09.616Z,11.00
2023-04-25T13:42:37.153Z,10.89
2023-04-25T13:45:04.073Z,10.78
2023-04-25T13:47:30.933Z,10.70
2023-04-25T13:49:58.227Z,10.60
2023-04-25T13:52:24.990Z,10.53
2023-04-25T13:54:51.821Z,10.51
2023-04-25T13:57:19.102Z,10.47
2023-04-25T13:59:45.910Z,10.50
2023-04-25T14:02:12.924Z,10.50
2023-04-25T14:04:39.557Z,10.49
2023-04-25T14:07:06.313Z,10.51
2023-04-25T14:09:32.922Z,10.52
2023-04-25T14:11:59.584Z,10.51
2023-04-25T14:14:26.250Z,10.56
2023-04-25T14:16:52.956Z,10.56
2023-04-25T14:19:21.656Z,10.52
2023-04-25T14:21:49.155Z,10.48
2023-04-25T14:24:16.744Z,10.45
2023-04-25T14:26:44.365Z,10.39
2023-04-25T14:29:11.308Z,10.27
2023-04-25T14:31:38.141Z,10.23
2023-04-25T14:34:04.820Z,10.22
2023-04-25T14:36:31.834Z,10.14
2023-04-25T14:38:58.418Z,10.04
2023-04-25T14:41:28.221Z,9.94
2023-04-25T14:43:54.891Z,9.88
2023-04-25T14:46:22.230Z,9.83
2023-04-25T14:48:48.866Z,9.74
2023-04-25T14:51:15.526Z,9.73
2023-04-25T14:53:42.587Z,9.67
2023-04-25T14:56:09.384Z,9.62
2023-04-25T14:58:36.193Z,9.59
2023-04-25T15:01:05.389Z,9.54
2023-04-25T15:03:32.294Z,9.55
2023-04-25T15:05:59.216Z,9.56
2023-04-25T15:08:25.877Z,9.58
2023-04-25T15:10:53.364Z,9.62
2023-04-25T15:13:20.363Z,9.68
2023-04-25T15:15:46.947Z,9.75
2023-04-25T15:18:13.828Z,9.84
2023-04-25T15:20:40.539Z,9.89
2023-04-25T15:23:07.309Z,9.93
2023-04-25T15:25:34.286Z,10.00
2023-04-25T15:28:01.057Z,10.09
2023-04-25T15:30:27.701Z,10.13
2023-04-25T15:32:54.334Z,10.20
2023-04-25T15:35:20.921Z,10.24
2023-04-25T15:37:47.496Z,10.24
2023-04-25T15:40:17.724Z,10.26
2023-04-25T15:42:49.343Z,10.24
2023-04-25T15:45:16.198Z,10.28
2023-04-25T15:47:42.907Z,10.29
2023-04-25T15:50:10.841Z,10.33
2023-04-25T15:52:38.260Z,10.26
2023-04-25T15:55:06.328Z,10.38
2023-04-25T15:57:34.052Z,10.46
2023-04-25T16:00:00.755Z,10.52
2023-04-25T16:02:27.639Z,10.55
2023-04-25T16:04:54.542Z,10.56
2023-04-25T16:07:21.192Z,10.56
2023-04-25T16:09:47.748Z,10.55
2023-04-25T16:12:14.441Z,10.49
2023-04-25T16:14:41.034Z,10.43
2023-04-25T16:17:07.621Z,10.41
2023-04-25T16:19:34.241Z,10.45
2023-04-25T16:22:00.868Z,10.42
2023-04-25T16:24:27.420Z,10.43
2023-04-25T16:26:54.089Z,10.44
2023-04-25T16:29:20.712Z,10.41
2023-04-25T16:31:47.400Z,10.40
2023-04-25T16:34:14.590Z,10.41
2023-04-25T16:36:41.352Z,10.35
2023-04-25T16:39:08.089Z,10.21
2023-04-25T16:41:35.080Z,10.12
2023-04-25T16:44:01.704Z,10.00
2023-04-25T16:46:28.331Z,9.85
2023-04-25T16:48:54.935Z,9.86
2023-04-25T16:51:21.507Z,9.81
2023-04-25T16:53:48.330Z,9.80
2023-04-25T16:56:14.970Z,9.80
2023-04-25T16:58:41.585Z,9.80
2023-04-25T17:01:08.281Z,9.82
2023-04-25T17:03:35.678Z,9.84
2023-04-25T17:06:02.456Z,9.85
2023-04-25T17:08:29.001Z,9.87
2023-04-25T17:10:55.930Z,9.88
2023-04-25T17:13:30.889Z,9.90
2023-04-25T17:15:58.105Z,9.93
2023-04-25T17:18:25.741Z,9.96
2023-04-25T17:20:52.504Z,9.98
2023-04-25T17:23:19.191Z,9.99
2023-04-25T17:25:45.901Z,9.99
2023-04-25T17:28:12.596Z,9.99
2023-04-25T17:30:39.954Z,9.98
2023-04-25T17:33:06.871Z,9.97
2023-04-25T17:35:33.587Z,9.96
2023-04-25T17:38:00.589Z,9.96
2023-04-25T17:40:27.176Z,9.93
2023-04-25T17:42:53.797Z,9.94
2023-04-25T17:45:20.521Z,9.96
2023-04-25T17:47:47.261Z,9.96
2023-04-25T17:50:13.883Z,9.95
2023-04-25T17:52:40.856Z,9.92
2023-04-25T17:55:07.822Z,9.89
2023-04-25T17:57:34.512Z,9.87
2023-04-25T18:00:01.070Z,9.83
2023-04-25T18:02:28.098Z,9.81
2023-04-25T18:04:54.768Z,9.80
2023-04-25T18:07:21.457Z,9.80
2023-04-25T18:09:48.184Z,9.77
2023-04-25T18:12:14.821Z,9.78
2023-04-25T18:14:41.522Z,9.77
2023-04-25T18:17:08.182Z,9.75
2023-04-25T18:19:34.853Z,9.74
2023-04-25T18:22:01.575Z,9.72
2023-04-25T18:24:28.130Z,9.71
2023-04-25T18:26:55.057Z,9.70
2023-04-25T18:29:32.361Z,9.70
2023-04-25T18:32:00.761Z,9.69
2023-04-25T18:34:27.759Z,9.70
2023-04-25T18:36:54.476Z,9.68
2023-04-25T18:39:22.919Z,9.67
2023-04-25T18:41:58.113Z,9.66
2023-04-25T18:44:26.556Z,9.65
2023-04-25T18:46:53.195Z,9.65
2023-04-25T18:49:21.338Z,9.63
2023-04-25T18:51:48.051Z,9.57
2023-04-25T18:54:14.704Z,9.55
2023-04-25T18:56:41.342Z,9.46
2023-04-25T18:59:07.913Z,9.41
2023-04-25T19:01:34.595Z,9.28
2023-04-25T19:04:02.960Z,9.22
2023-04-25T19:06:32.094Z,9.14
2023-04-25T19:08:58.663Z,9.06
2023-04-25T19:11:25.317Z,9.00
2023-04-25T19:13:52.592Z,8.94
2023-04-25T19:16:19.492Z,8.90
2023-04-25T19:18:46.476Z,8.88
2023-04-25T19:21:13.279Z,8.85
2023-04-25T19:23:40.056Z,8.84
2023-04-25T19:26:07.349Z,8.84
2023-04-25T19:28:34.026Z,8.83
2023-04-25T19:31:00.842Z,8.83
2023-04-25T19:33:27.470Z,8.83
2023-04-25T19:35:54.310Z,8.81
2023-04-25T19:38:21.057Z,8.82
2023-04-25T19:40:48.458Z,8.83
2023-04-25T19:43:15.097Z,8.87
2023-04-25T19:45:41.702Z,8.87
2023-04-25T19:48:08.424Z,8.88
2023-04-25T19:50:35.072Z,8.89
2023-04-25T19:53:01.687Z,8.91
2023-04-25T19:55:28.272Z,8.91
2023-04-25T19:57:54.981Z,8.95
2023-04-25T20:00:21.630Z,8.94
2023-04-25T20:02:48.385Z,8.94
2023-04-25T20:05:16.694Z,8.94
2023-04-25T20:07:43.245Z,8.87
2023-04-25T20:10:11.772Z,8.94
2023-04-25T20:12:38.598Z,8.96
2023-04-25T20:15:05.855Z,8.96
2023-04-25T20:17:32.459Z,8.96
2023-04-25T20:19:59.237Z,8.97
2023-04-25T20:22:25.799Z,8.98
2023-04-25T20:24:52.881Z,8.97
2023-04-25T20:27:19.608Z,8.99
2023-04-25T20:29:46.245Z,8.99
2023-04-25T20:32:13.074Z,9.00
2023-04-25T20:34:39.797Z,9.01
2023-04-25T20:37:06.474Z,9.00
2023-04-25T20:39:33.026Z,8.98
2023-04-25T20:41:59.774Z,8.97
2023-04-25T20:44:26.509Z,8.96
2023-04-25T20:46:53.072Z,8.95
2023-04-25T20:49:19.633Z,8.94
2023-04-25T20:51:46.417Z,8.91
2023-04-25T20:54:13.102Z,8.91
2023-04-25T20:56:39.665Z,8.88
2023-04-25T20:59:06.301Z,8.88
2023-04-25T21:01:33.025Z,8.86
2023-04-25T21:03:59.884Z,8.84
2023-04-25T21:06:26.595Z,8.80
2023-04-25T21:08:53.335Z,8.79
2023-04-25T21:11:20.054Z,8.76
2023-04-25T21:13:46.655Z,8.73
2023-04-25T21:16:13.241Z,8.71
2023-04-25T21:18:39.849Z,8.68
2023-04-25T21:21:06.489Z,8.68
2023-04-25T21:23:33.536Z,8.67
2023-04-25T21:26:00.125Z,8.69
2023-04-25T21:28:27.048Z,8.70
2023-04-25T21:30:53.847Z,8.74
2023-04-25T21:33:20.593Z,8.74
2023-04-25T21:35:47.313Z,8.75
2023-04-25T21:38:16.468Z,8.77
2023-04-25T21:40:43.218Z,8.81
2023-04-25T21:43:09.864Z,8.81
2023-04-25T21:45:51.331Z,8.80
2023-04-25T21:48:23.365Z,8.81
2023-04-25T21:50:50.014Z,8.81
2023-04-25T21:53:16.767Z,8.81
2023-04-25T21:55:43.337Z,8.81
2023-04-25T21:58:10.098Z,8.80
2023-04-25T22:00:36.875Z,8.80
2023-04-25T22:03:03.746Z,8.81
2023-04-25T22:05:30.492Z,8.81
2023-04-25T22:07:57.643Z,8.79
2023-04-25T22:10:24.824Z,8.76
2023-04-25T22:12:51.516Z,8.76
2023-04-25T22:15:19.021Z,8.77
2023-04-25T22:17:46.471Z,8.74
2023-04-25T22:20:13.913Z,8.74
2023-04-25T22:22:41.388Z,8.73
2023-04-25T22:25:09.232Z,8.70
2023-04-25T22:27:35.780Z,8.70
2023-04-25T22:30:02.638Z,8.69
2023-04-25T22:32:29.543Z,8.69
2023-04-25T22:34:56.228Z,8.69
2023-04-25T22:37:22.933Z,8.68
2023-04-25T22:39:49.529Z,8.68
2023-04-25T22:42:16.137Z,8.66
2023-04-25T22:44:42.676Z,8.66
2023-04-25T22:47:09.392Z,8.64
2023-04-25T22:49:36.122Z,8.61
2023-04-25T22:52:02.683Z,8.59
2023-04-25T22:54:29.248Z,8.56
2023-04-25T22:56:55.889Z,8.55
2023-04-25T22:59:22.443Z,8.51
2023-04-25T23:01:49.118Z,8.49
2023-04-25T23:04:15.910Z,8.47
2023-04-25T23:06:42.604Z,8.45
2023-04-25T23:09:09.191Z,8.42
2023-04-25T23:11:35.783Z,8.39
2023-04-25T23:14:02.378Z,8.38
2023-04-25T23:16:28.962Z,8.35
2023-04-25T23:18:55.750Z,8.33
2023-04-25T23:21:22.289Z,8.31
2023-04-25T23:23:48.899Z,8.33
2023-04-25T23:26:15.445Z,8.34
2023-04-25T23:28:42.151Z,8.35
2023-04-25T23:31:10.427Z,8.35
2023-04-25T23:33:37.318Z,8.28
2023-04-25T23:36:04.189Z,8.35
2023-04-25T23:38:30.753Z,8.38
2023-04-25T23:40:57.291Z,8.36
2023-04-25T23:43:24.006Z,8.37
2023-04-25T23:45:51.930Z,8.36
2023-04-25T23:48:18.763Z,8.36
2023-04-25T23:50:45.317Z,8.39
2023-04-25T23:53:12.172Z,8.42
2023-04-25T23:55:38.757Z,8.43
2023-04-25T23:58:05.307Z,8.45
